Terminal Aerodrome Forecast
Issued by NWS

Home | Current Version | Previous Version | Text Only | Print | Product List | Glossary On
Versions: 1 2 3 4 5 6 7 8 9 10 11 12 13 14 15 16 17
000
FTUS44 KBMX 230600 AAA
TAFMGM
TAF AMD
KMGM 230656Z 2307/2406 10010KT 6SM SHRA BKN015 OVC025
      TEMPO 2307/2311 BKN007
     FM231100 12011KT 4SM SHRA VCTS BKN007CB OVC035
      TEMPO 2316/2318 TSRA BKN007CB
     FM231800 17015G25KT 4SM TSRA SCT007CB BKN015 OVC025
     FM240200 19010KT P6SM SCT250=

USA.gov is the U.S. government's official web portal to all federal, state and local government web resources and services.